createdAt,value
2019-03-18T00:01:51.447Z,73.92
2019-03-18T00:04:18.275Z,74.18
2019-03-18T00:06:44.900Z,74.77
2019-03-18T00:09:11.478Z,74.21
2019-03-18T00:11:38.215Z,73.81
2019-03-18T00:14:04.999Z,72.79
2019-03-18T00:16:32.738Z,72.54
2019-03-18T00:18:59.410Z,72.75
2019-03-18T00:21:25.988Z,72.62
2019-03-18T00:23:52.791Z,72.82
2019-03-18T00:26:19.640Z,73.25
2019-03-18T00:28:46.520Z,73.64
2019-03-18T00:31:13.096Z,73.57
2019-03-18T00:33:39.668Z,73.63
2019-03-18T00:36:06.439Z,73.63
2019-03-18T00:38:33.107Z,73.95
2019-03-18T00:40:59.917Z,73.89
2019-03-18T00:43:26.515Z,73.70
2019-03-18T00:45:53.237Z,74.21
2019-03-18T00:48:19.986Z,74.64
2019-03-18T00:50:46.758Z,73.82
2019-03-18T00:53:13.524Z,73.86
2019-03-18T00:55:40.107Z,73.58
2019-03-18T00:58:06.839Z,73.60
2019-03-18T01:00:33.616Z,73.59
2019-03-18T01:03:00.451Z,73.95
2019-03-18T01:05:27.216Z,74.19
2019-03-18T01:07:53.891Z,74.54
2019-03-18T01:10:20.527Z,74.57
2019-03-18T01:12:47.369Z,74.53
2019-03-18T01:15:26.790Z,73.86
2019-03-18T01:17:43.225Z,74.37
2019-03-18T01:20:10.446Z,74.30
2019-03-18T01:22:36.990Z,74.23
2019-03-18T01:25:03.892Z,73.93
2019-03-18T01:27:30.440Z,74.49
2019-03-18T01:29:57.056Z,74.84
2019-03-18T01:32:23.819Z,74.50
2019-03-18T01:34:50.648Z,75.32
2019-03-18T01:37:17.296Z,75.72
2019-03-18T01:39:44.063Z,75.55
2019-03-18T01:42:10.704Z,75.34
2019-03-18T01:44:37.266Z,75.46
2019-03-18T01:47:04.157Z,75.56
2019-03-18T01:49:30.820Z,75.87
2019-03-18T01:51:57.623Z,76.00
2019-03-18T01:54:24.502Z,75.29
2019-03-18T01:56:51.160Z,75.13
2019-03-18T01:59:17.737Z,75.28
2019-03-18T02:01:44.461Z,75.13
2019-03-18T02:04:11.129Z,75.04
2019-03-18T02:06:37.794Z,74.23
2019-03-18T02:09:05.275Z,74.04
2019-03-18T02:11:32.024Z,73.41
2019-03-18T02:13:58.669Z,73.45
2019-03-18T02:16:25.595Z,72.84
2019-03-18T02:18:52.369Z,73.13
2019-03-18T02:21:19.242Z,73.57
2019-03-18T02:23:45.999Z,73.96
2019-03-18T02:26:12.552Z,73.94
2019-03-18T02:28:39.210Z,73.65
2019-03-18T02:31:06.252Z,73.81
2019-03-18T02:33:32.871Z,74.46
2019-03-18T02:35:59.538Z,74.43
2019-03-18T02:38:26.523Z,74.83
2019-03-18T02:40:53.170Z,75.36
2019-03-18T02:43:19.830Z,75.36
2019-03-18T02:45:47.776Z,75.52
2019-03-18T02:48:14.458Z,75.64
2019-03-18T02:50:41.229Z,74.46
2019-03-18T02:53:08.035Z,74.81
2019-03-18T02:55:34.685Z,74.77
2019-03-18T02:58:01.324Z,74.70
2019-03-18T03:00:28.070Z,73.71
2019-03-18T03:02:54.598Z,73.04
2019-03-18T03:05:21.254Z,73.72
2019-03-18T03:07:48.124Z,73.46
2019-03-18T03:10:14.914Z,73.20
2019-03-18T03:12:41.475Z,73.27
2019-03-18T03:15:08.142Z,73.34
2019-03-18T03:17:34.685Z,72.50
2019-03-18T03:20:01.562Z,72.53
2019-03-18T03:22:28.077Z,73.00
2019-03-18T03:24:54.748Z,73.41
2019-03-18T03:27:21.434Z,73.69
2019-03-18T03:29:48.141Z,72.84
2019-03-18T03:32:14.694Z,72.47
2019-03-18T03:34:41.501Z,72.81
2019-03-18T03:37:08.120Z,72.64
2019-03-18T03:39:34.681Z,72.99
2019-03-18T03:42:01.613Z,72.93
2019-03-18T03:44:28.150Z,73.31
2019-03-18T03:46:54.885Z,72.38
2019-03-18T03:49:21.622Z,72.22
2019-03-18T03:51:48.130Z,72.66
2019-03-18T03:54:14.687Z,72.87
2019-03-18T03:56:41.366Z,72.81
2019-03-18T03:59:08.060Z,72.45
2019-03-18T04:01:34.647Z,72.33
2019-03-18T04:04:01.238Z,72.71
2019-03-18T04:06:27.942Z,72.78
2019-03-18T04:08:54.585Z,73.10
2019-03-18T04:11:21.241Z,72.53
2019-03-18T04:13:47.976Z,73.19
2019-03-18T04:16:14.635Z,72.75
2019-03-18T04:18:41.165Z,72.79
2019-03-18T04:21:07.814Z,73.14
2019-03-18T04:23:34.582Z,73.19
2019-03-18T04:26:01.231Z,73.72
2019-03-18T04:28:27.889Z,73.72
2019-03-18T04:33:24.269Z,73.91
2019-03-18T04:35:50.929Z,73.98
2019-03-18T04:38:17.724Z,73.90
2019-03-18T04:40:44.517Z,73.88
2019-03-18T04:43:11.218Z,74.56
2019-03-18T04:45:37.970Z,74.63
2019-03-18T04:48:04.753Z,75.20
2019-03-18T04:50:31.435Z,75.47
2019-03-18T04:52:58.073Z,75.59
2019-03-18T04:55:24.733Z,75.77
2019-03-18T04:57:51.433Z,76.32
2019-03-18T05:00:18.064Z,76.25
2019-03-18T05:02:44.792Z,76.87
2019-03-18T05:05:11.481Z,76.63
2019-03-18T05:07:38.267Z,76.75
2019-03-18T05:10:05.266Z,76.64
2019-03-18T05:12:31.809Z,77.21
2019-03-18T05:14:58.337Z,77.35
2019-03-18T05:17:26.977Z,77.61
2019-03-18T05:19:53.473Z,78.36
2019-03-18T05:22:20.017Z,78.04
2019-03-18T05:24:46.557Z,77.51
2019-03-18T05:27:13.200Z,78.30
2019-03-18T05:29:39.857Z,78.15
2019-03-18T05:32:06.581Z,78.20
2019-03-18T05:34:33.121Z,77.96
2019-03-18T05:36:59.892Z,78.03
2019-03-18T05:39:27.251Z,77.58
2019-03-18T05:41:53.923Z,77.76
2019-03-18T05:44:20.619Z,77.59
2019-03-18T05:46:47.417Z,77.49
2019-03-18T05:49:14.278Z,77.42
2019-03-18T05:51:40.828Z,77.63
2019-03-18T05:54:07.544Z,77.61
2019-03-18T05:56:34.247Z,77.40
2019-03-18T05:59:01.052Z,77.36
2019-03-18T06:01:27.945Z,77.06
2019-03-18T06:03:54.561Z,77.07
2019-03-18T06:06:21.659Z,77.04
2019-03-18T06:08:48.344Z,76.94
2019-03-18T06:11:14.874Z,76.67
2019-03-18T06:13:41.625Z,76.49
2019-03-18T06:16:08.336Z,76.32
2019-03-18T06:18:35.247Z,75.94
2019-03-18T06:21:01.989Z,75.66
2019-03-18T06:23:28.686Z,75.65
2019-03-18T06:25:55.374Z,75.57
2019-03-18T06:28:22.204Z,75.91
2019-03-18T06:30:49.030Z,75.71
2019-03-18T06:33:15.570Z,76.07
2019-03-18T06:35:42.426Z,76.02
2019-03-18T06:38:09.208Z,75.25
2019-03-18T06:40:35.990Z,74.74
2019-03-18T06:43:02.828Z,74.37
2019-03-18T06:45:29.528Z,73.50
2019-03-18T06:48:04.827Z,73.03
2019-03-18T06:50:24.639Z,73.10
2019-03-18T06:52:51.169Z,72.50
2019-03-18T06:55:17.709Z,72.66
2019-03-18T06:57:44.423Z,72.09
2019-03-18T07:00:11.054Z,71.23
2019-03-18T07:02:37.602Z,71.53
2019-03-18T07:05:05.973Z,71.28
2019-03-18T07:07:32.497Z,71.22
2019-03-18T07:09:59.149Z,70.78
2019-03-18T07:12:25.731Z,70.27
2019-03-18T07:14:52.288Z,70.39
2019-03-18T07:17:18.918Z,70.18
2019-03-18T07:19:45.588Z,70.01
2019-03-18T07:22:12.342Z,69.22
2019-03-18T07:24:39.040Z,69.12
2019-03-18T07:27:05.888Z,70.42
2019-03-18T07:29:32.454Z,69.44
2019-03-18T07:31:59.175Z,68.71
2019-03-18T07:34:25.971Z,68.22
2019-03-18T07:36:52.741Z,68.33
2019-03-18T07:39:19.348Z,68.59
2019-03-18T07:41:46.034Z,67.87
2019-03-18T07:44:12.679Z,67.61
2019-03-18T07:46:39.335Z,66.64
2019-03-18T07:49:05.964Z,65.86
2019-03-18T07:51:32.747Z,65.97
2019-03-18T07:53:59.399Z,64.87
2019-03-18T07:56:26.014Z,64.69
2019-03-18T07:58:52.668Z,64.32
2019-03-18T08:01:19.266Z,63.50
2019-03-18T08:03:45.842Z,62.20
2019-03-18T08:06:12.737Z,60.90
2019-03-18T08:08:39.546Z,60.24
2019-03-18T08:11:06.373Z,61.15
2019-03-18T08:13:32.956Z,59.95
2019-03-18T08:15:59.675Z,59.68
2019-03-18T08:18:26.481Z,58.34
2019-03-18T08:20:53.183Z,57.61
2019-03-18T08:23:20.057Z,58.36
2019-03-18T08:25:46.671Z,57.40
2019-03-18T08:28:13.218Z,57.08
2019-03-18T08:30:39.883Z,56.05
2019-03-18T08:33:06.546Z,56.75
2019-03-18T08:35:33.317Z,55.32
2019-03-18T08:38:00.069Z,55.54
2019-03-18T08:40:26.788Z,54.66
2019-03-18T08:42:53.493Z,52.85
2019-03-18T08:45:20.042Z,51.46
2019-03-18T08:47:46.708Z,48.81
2019-03-18T08:50:13.478Z,47.27
2019-03-18T08:52:40.379Z,45.53
2019-03-18T08:55:07.109Z,45.11
2019-03-18T08:57:33.769Z,45.73
2019-03-18T09:00:00.438Z,46.32
2019-03-18T09:02:26.978Z,45.10
2019-03-18T09:04:53.710Z,45.58
2019-03-18T09:07:20.354Z,46.71
2019-03-18T09:09:46.979Z,47.04
2019-03-18T09:12:13.693Z,48.04
2019-03-18T09:14:40.442Z,48.79
2019-03-18T09:17:07.109Z,48.28
2019-03-18T09:19:33.770Z,48.86
2019-03-18T09:22:00.486Z,49.01
2019-03-18T09:24:27.230Z,48.17
2019-03-18T09:27:02.227Z,48.19
2019-03-18T09:29:22.368Z,47.22
2019-03-18T09:31:49.053Z,45.93
2019-03-18T09:34:15.890Z,43.62
2019-03-18T09:36:42.615Z,42.47
2019-03-18T09:39:09.396Z,40.83
2019-03-18T09:41:36.041Z,39.17
2019-03-18T09:44:02.800Z,38.58
2019-03-18T09:46:29.471Z,40.32
2019-03-18T09:48:56.029Z,41.41
2019-03-18T09:51:22.817Z,42.57
2019-03-18T09:53:49.362Z,44.73
2019-03-18T09:56:16.214Z,46.32
2019-03-18T09:58:42.867Z,48.73
2019-03-18T10:01:09.580Z,50.30
2019-03-18T10:03:36.303Z,52.08
2019-03-18T10:06:03.052Z,53.21
2019-03-18T10:08:29.712Z,51.48
2019-03-18T10:10:56.548Z,50.18
2019-03-18T10:13:23.212Z,49.01
2019-03-18T10:15:49.876Z,47.01
2019-03-18T10:18:16.686Z,46.57
2019-03-18T10:20:43.220Z,45.53
2019-03-18T10:23:09.758Z,46.00
2019-03-18T10:25:36.426Z,44.43
2019-03-18T10:28:03.177Z,45.42
2019-03-18T10:30:29.900Z,42.56
2019-03-18T10:32:56.656Z,41.75
2019-03-18T10:35:23.363Z,40.42
2019-03-18T10:37:50.044Z,41.64
2019-03-18T10:40:16.721Z,40.69
2019-03-18T10:42:43.363Z,42.21
2019-03-18T10:45:10.109Z,42.57
2019-03-18T10:47:36.952Z,43.09
2019-03-18T10:50:04.275Z,41.60
2019-03-18T10:52:30.891Z,39.76
2019-03-18T10:54:57.570Z,38.11
2019-03-18T10:57:24.187Z,37.88
2019-03-18T10:59:50.893Z,38.66
2019-03-18T11:02:17.539Z,41.13
2019-03-18T11:04:44.332Z,41.89
2019-03-18T11:07:11.070Z,43.55
2019-03-18T11:09:37.732Z,44.56
2019-03-18T11:12:04.428Z,45.50
2019-03-18T11:14:31.273Z,47.11
2019-03-18T11:16:57.835Z,48.01
2019-03-18T11:19:24.440Z,48.75
2019-03-18T11:21:51.318Z,48.90
2019-03-18T11:24:18.058Z,48.41
2019-03-18T11:26:44.975Z,47.09
2019-03-18T11:29:11.942Z,46.30
2019-03-18T11:31:38.622Z,46.21
2019-03-18T11:34:05.304Z,45.48
2019-03-18T11:36:32.105Z,44.20
2019-03-18T11:38:58.823Z,44.45
2019-03-18T11:41:25.610Z,44.33
2019-03-18T11:43:55.879Z,41.77
2019-03-18T11:46:22.737Z,40.65
2019-03-18T11:48:49.549Z,39.64
2019-03-18T11:51:24.541Z,40.32
2019-03-18T11:53:51.616Z,41.15
2019-03-18T11:56:24.719Z,41.68
2019-03-18T11:58:51.802Z,41.11
2019-03-18T12:01:25.422Z,41.55
2019-03-18T12:03:52.472Z,42.47
2019-03-18T12:06:19.293Z,42.29
2019-03-18T12:08:45.988Z,41.44
2019-03-18T12:11:13.806Z,41.84
2019-03-18T12:13:43.544Z,41.88
2019-03-18T12:16:10.377Z,40.01
2019-03-18T12:18:37.210Z,38.25
2019-03-18T12:21:04.375Z,36.68
2019-03-18T12:23:30.980Z,35.14
2019-03-18T12:26:04.829Z,32.97
2019-03-18T12:28:31.616Z,31.50
2019-03-18T12:30:58.232Z,30.57
2019-03-18T12:33:32.899Z,30.31
2019-03-18T12:35:59.776Z,29.37
2019-03-18T12:38:28.225Z,29.68
2019-03-18T12:40:54.870Z,30.23
2019-03-18T12:43:21.516Z,30.12
2019-03-18T12:45:48.184Z,31.70
2019-03-18T12:48:15.271Z,33.81
2019-03-18T12:50:55.151Z,34.08
2019-03-18T12:53:10.719Z,35.55
2019-03-18T12:55:37.523Z,35.30
2019-03-18T12:58:04.366Z,34.65
2019-03-18T13:00:31.175Z,34.34
2019-03-18T13:02:57.973Z,35.14
2019-03-18T13:05:26.639Z,35.30
2019-03-18T13:07:53.646Z,36.47
2019-03-18T13:10:21.853Z,36.49
2019-03-18T13:12:48.990Z,36.94
2019-03-18T13:15:15.791Z,37.35
2019-03-18T13:17:43.848Z,37.94
2019-03-18T13:20:11.759Z,38.84
2019-03-18T13:22:39.186Z,38.83
2019-03-18T13:25:06.409Z,39.56
2019-03-18T13:27:33.214Z,40.32
2019-03-18T13:30:00.050Z,40.30
2019-03-18T13:32:26.864Z,40.90
2019-03-18T13:34:53.615Z,39.90
2019-03-18T13:37:21.589Z,41.02
2019-03-18T13:39:49.368Z,41.16
2019-03-18T13:42:16.282Z,38.62
2019-03-18T13:44:43.681Z,38.90
2019-03-18T13:47:10.288Z,38.78
2019-03-18T13:49:38.464Z,38.44
2019-03-18T13:52:05.380Z,39.23
2019-03-18T13:54:32.582Z,38.29
2019-03-18T13:57:00.274Z,38.83
2019-03-18T13:59:28.248Z,38.45
2019-03-18T14:01:55.235Z,40.24
2019-03-18T14:04:22.108Z,40.24
2019-03-18T14:06:49.425Z,40.20
2019-03-18T14:09:16.283Z,40.42
2019-03-18T14:11:44.005Z,41.72
2019-03-18T14:14:10.724Z,42.53
2019-03-18T14:16:37.423Z,42.34
2019-03-18T14:19:04.134Z,43.23
2019-03-18T14:21:33.595Z,43.29
2019-03-18T14:23:59.388Z,43.33
2019-03-18T14:26:26.092Z,42.65
2019-03-18T14:28:52.871Z,42.22
2019-03-18T14:31:20.289Z,43.13
2019-03-18T14:33:48.947Z,42.16
2019-03-18T14:36:15.777Z,43.09
2019-03-18T14:38:43.032Z,42.89
2019-03-18T14:41:09.849Z,43.32
2019-03-18T14:43:37.414Z,43.42
2019-03-18T14:46:04.371Z,45.28
2019-03-18T14:48:31.213Z,43.24
2019-03-18T14:50:58.684Z,42.89
2019-03-18T14:53:25.497Z,41.75
2019-03-18T14:55:53.079Z,42.59
2019-03-18T14:58:19.944Z,41.42
2019-03-18T15:00:47.201Z,42.09
2019-03-18T15:03:14.061Z,43.32
2019-03-18T15:05:40.988Z,43.37
2019-03-18T15:08:07.857Z,44.45
2019-03-18T15:10:34.448Z,45.25
2019-03-18T15:13:01.321Z,46.74
2019-03-18T15:15:28.378Z,46.64
2019-03-18T15:17:54.922Z,47.21
2019-03-18T15:20:24.110Z,46.43
2019-03-18T15:22:50.911Z,47.17
2019-03-18T15:25:18.882Z,46.52
2019-03-18T15:27:45.647Z,47.46
2019-03-18T15:30:14.208Z,48.10
2019-03-18T15:32:42.123Z,48.70
2019-03-18T15:35:09.122Z,48.93
2019-03-18T15:37:35.951Z,48.03
2019-03-18T15:40:05.357Z,47.97
2019-03-18T15:42:32.773Z,47.32
2019-03-18T15:45:02.704Z,47.39
2019-03-18T15:47:28.680Z,46.37
2019-03-18T15:49:55.523Z,47.11
2019-03-18T15:52:22.183Z,46.88
2019-03-18T15:54:54.020Z,46.74
2019-03-18T15:57:29.638Z,47.69
2019-03-18T15:59:52.236Z,46.15
2019-03-18T16:02:22.221Z,46.52
2019-03-18T16:04:49.180Z,47.91
2019-03-18T16:07:16.827Z,48.15
2019-03-18T16:09:44.198Z,48.22
2019-03-18T16:12:14.300Z,48.83
2019-03-18T16:14:45.687Z,48.71
2019-03-18T16:17:19.065Z,49.97
2019-03-18T16:19:48.831Z,51.61
2019-03-18T16:22:23.516Z,52.54
2019-03-18T16:24:47.161Z,53.24
2019-03-18T16:27:13.962Z,52.49
2019-03-18T16:29:40.795Z,52.78
2019-03-18T16:32:11.679Z,52.88
2019-03-18T16:34:37.699Z,52.61
2019-03-18T16:37:04.637Z,52.34
2019-03-18T16:39:31.536Z,52.53
2019-03-18T16:41:58.393Z,52.54
2019-03-18T16:44:25.148Z,52.79
2019-03-18T16:46:52.333Z,54.71
2019-03-18T16:49:19.012Z,54.08
2019-03-18T16:51:45.923Z,53.80
2019-03-18T16:54:12.776Z,53.53
2019-03-18T16:56:39.473Z,54.03
2019-03-18T16:59:06.355Z,54.23
2019-03-18T17:01:33.234Z,54.38
2019-03-18T17:04:00.050Z,55.31
2019-03-18T17:06:26.721Z,55.41
2019-03-18T17:08:53.772Z,56.98
2019-03-18T17:11:22.217Z,56.59
2019-03-18T17:13:49.021Z,56.19
2019-03-18T17:16:15.809Z,57.00
2019-03-18T17:18:42.688Z,57.11
2019-03-18T17:21:10.341Z,57.81
2019-03-18T17:23:37.178Z,57.80
2019-03-18T17:26:04.069Z,58.67
2019-03-18T17:28:30.835Z,59.65
2019-03-18T17:30:57.699Z,60.32
2019-03-18T17:33:24.259Z,60.00
2019-03-18T17:35:50.955Z,59.81
2019-03-18T17:38:17.704Z,59.93
2019-03-18T17:40:44.485Z,61.19
2019-03-18T17:43:11.154Z,61.33
2019-03-18T17:45:38.089Z,61.65
2019-03-18T17:48:04.831Z,62.33
2019-03-18T17:50:31.507Z,62.85
2019-03-18T17:53:03.179Z,64.01
2019-03-18T17:55:27.043Z,64.01
2019-03-18T17:57:53.747Z,63.55
2019-03-18T18:00:22.638Z,64.61
2019-03-18T18:02:52.490Z,64.49
2019-03-18T18:05:18.342Z,64.84
2019-03-18T18:07:45.138Z,65.27
2019-03-18T18:10:12.020Z,66.48
2019-03-18T18:12:38.892Z,66.22
2019-03-18T18:15:05.796Z,65.85
2019-03-18T18:17:32.787Z,66.58
2019-03-18T18:19:59.698Z,67.10
2019-03-18T18:22:26.564Z,66.92
2019-03-18T18:24:53.329Z,67.49
2019-03-18T18:27:20.174Z,67.50
2019-03-18T18:29:46.931Z,68.06
2019-03-18T18:32:13.596Z,68.22
2019-03-18T18:34:40.556Z,68.09
2019-03-18T18:37:07.225Z,68.38
2019-03-18T18:39:33.955Z,68.77
2019-03-18T18:42:00.805Z,69.08
2019-03-18T18:44:27.486Z,69.55
2019-03-18T18:46:54.300Z,69.70
2019-03-18T18:49:21.169Z,69.54
2019-03-18T18:51:47.979Z,69.99
2019-03-18T18:54:14.733Z,69.85
2019-03-18T18:56:41.518Z,70.29
2019-03-18T18:59:08.246Z,70.39
2019-03-18T19:01:34.824Z,70.36
2019-03-18T19:04:01.658Z,70.05
2019-03-18T19:06:28.568Z,70.45
2019-03-18T19:08:55.491Z,71.25
2019-03-18T19:11:22.311Z,70.68
2019-03-18T19:13:48.891Z,71.10
2019-03-18T19:16:15.642Z,71.25
2019-03-18T19:18:42.432Z,70.56
2019-03-18T19:21:10.313Z,69.99
2019-03-18T19:23:38.137Z,69.55
2019-03-18T19:26:05.088Z,69.32
2019-03-18T19:28:31.953Z,69.41
2019-03-18T19:30:58.801Z,68.98
2019-03-18T19:33:25.602Z,68.72
2019-03-18T19:35:53.179Z,68.46
2019-03-18T19:38:19.974Z,68.85
2019-03-18T19:40:46.651Z,69.91
2019-03-18T19:43:14.351Z,69.91
2019-03-18T19:45:41.070Z,69.56
2019-03-18T19:48:08.277Z,69.60
2019-03-18T19:50:35.165Z,69.33
2019-03-18T19:53:02.533Z,69.49
2019-03-18T19:55:29.317Z,68.75
2019-03-18T19:57:56.326Z,68.92
2019-03-18T20:00:23.590Z,68.86
2019-03-18T20:02:50.874Z,69.02
2019-03-18T20:05:20.492Z,68.86
2019-03-18T20:07:47.330Z,68.78
2019-03-18T20:10:14.104Z,69.17
2019-03-18T20:12:41.067Z,69.60
2019-03-18T20:15:09.199Z,69.77
2019-03-18T20:17:36.237Z,69.28
2019-03-18T20:20:03.856Z,69.28
2019-03-18T20:22:30.493Z,69.45
2019-03-18T20:24:57.333Z,69.66
2019-03-18T20:27:24.133Z,69.89
2019-03-18T20:29:50.886Z,69.77
2019-03-18T20:32:19.621Z,70.30
2019-03-18T20:34:46.690Z,70.38
2019-03-18T20:37:13.660Z,70.47
2019-03-18T20:39:40.534Z,70.73
2019-03-18T20:42:07.554Z,70.88
2019-03-18T20:44:34.336Z,71.02
2019-03-18T20:47:01.227Z,71.39
2019-03-18T20:49:28.134Z,71.60
2019-03-18T20:51:55.028Z,71.90
2019-03-18T20:54:22.061Z,72.25
2019-03-18T20:56:48.977Z,72.32
2019-03-18T20:59:15.823Z,72.55
2019-03-18T21:01:42.504Z,73.19
2019-03-18T21:04:10.307Z,73.03
2019-03-18T21:06:37.306Z,73.56
2019-03-18T21:09:06.007Z,73.28
2019-03-18T21:11:32.914Z,73.69
2019-03-18T21:13:59.930Z,73.52
2019-03-18T21:16:28.839Z,74.48
2019-03-18T21:18:55.945Z,74.66
2019-03-18T21:21:22.657Z,74.09
2019-03-18T21:23:49.396Z,75.02
2019-03-18T21:26:16.335Z,74.56
2019-03-18T21:28:43.198Z,74.64
2019-03-18T21:31:09.944Z,74.94
2019-03-18T21:33:36.771Z,75.59
2019-03-18T21:36:03.503Z,75.28
2019-03-18T21:38:30.041Z,75.58
2019-03-18T21:40:57.030Z,75.36
2019-03-18T21:43:25.800Z,75.40
2019-03-18T21:45:52.579Z,75.34
2019-03-18T21:48:19.407Z,75.21
2019-03-18T21:50:46.500Z,74.69
2019-03-18T21:53:13.181Z,74.69
2019-03-18T21:55:40.227Z,74.99
2019-03-18T21:58:07.072Z,75.44
2019-03-18T22:00:34.983Z,75.57
2019-03-18T22:03:02.998Z,76.07
2019-03-18T22:05:30.778Z,76.38
2019-03-18T22:07:57.603Z,76.11
2019-03-18T22:10:24.440Z,76.58
2019-03-18T22:12:51.464Z,77.28
2019-03-18T22:15:18.490Z,78.07
2019-03-18T22:17:45.356Z,78.27
2019-03-18T22:20:13.166Z,78.51
2019-03-18T22:22:39.974Z,78.26
2019-03-18T22:25:07.425Z,78.65
2019-03-18T22:27:34.501Z,78.66
2019-03-18T22:30:01.354Z,78.89
2019-03-18T22:32:30.145Z,78.68
2019-03-18T22:34:57.968Z,78.29
2019-03-18T22:37:24.735Z,77.97
2019-03-18T22:39:51.653Z,77.77
2019-03-18T22:42:18.213Z,77.64
2019-03-18T22:44:45.056Z,77.43
2019-03-18T22:47:11.839Z,77.23
2019-03-18T22:49:38.734Z,77.56
2019-03-18T22:52:05.858Z,77.80
2019-03-18T22:54:32.768Z,77.66
2019-03-18T22:56:59.565Z,78.17
2019-03-18T22:59:26.205Z,78.27
2019-03-18T23:01:52.990Z,78.16
2019-03-18T23:04:19.930Z,78.24
2019-03-18T23:06:46.586Z,78.54
2019-03-18T23:09:13.256Z,78.38
2019-03-18T23:11:39.817Z,78.55
2019-03-18T23:14:06.349Z,78.00
2019-03-18T23:16:33.001Z,78.02
2019-03-18T23:18:59.660Z,78.00
2019-03-18T23:21:26.635Z,78.20
2019-03-18T23:23:53.168Z,78.04
2019-03-18T23:26:20.082Z,77.94
2019-03-18T23:28:46.719Z,77.91
2019-03-18T23:31:13.249Z,77.74
2019-03-18T23:33:40.026Z,78.13
2019-03-18T23:36:06.720Z,77.56
2019-03-18T23:38:33.321Z,77.62
2019-03-18T23:40:59.996Z,77.42
2019-03-18T23:43:26.714Z,77.36
2019-03-18T23:45:53.252Z,76.49
2019-03-18T23:48:20.142Z,76.99
2019-03-18T23:50:46.916Z,77.06
2019-03-18T23:53:13.483Z,77.13
2019-03-18T23:55:40.463Z,77.19
2019-03-18T23:58:07.066Z,77.47
